sensor_id;sensor_type;location;lat;lon;timestamp;temperature;humidity
25877;DHT22;13692;47.480;19.216;2023-06-01T00:02:25;15.80;99.90
25877;DHT22;13692;47.480;19.216;2023-06-01T00:04:53;15.80;99.90
25877;DHT22;13692;47.480;19.216;2023-06-01T00:07:20;15.70;99.90
25877;DHT22;13692;47.480;19.216;2023-06-01T00:09:47;15.70;99.90
25877;DHT22;13692;47.480;19.216;2023-06-01T00:12:15;15.70;99.90
25877;DHT22;13692;47.480;19.216;2023-06-01T00:14:42;15.60;99.90
25877;DHT22;13692;47.480;19.216;2023-06-01T00:17:09;15.70;99.90
25877;DHT22;13692;47.480;19.216;2023-06-01T00:19:36;15.70;99.90
25877;DHT22;13692;47.480;19.216;2023-06-01T00:22:05;15.70;99.90
25877;DHT22;13692;47.480;19.216;2023-06-01T00:24:34;15.60;99.90
25877;DHT22;13692;47.480;19.216;2023-06-01T00:27:01;15.60;99.90
25877;DHT22;13692;47.480;19.216;2023-06-01T00:29:28;15.60;99.90
25877;DHT22;13692;47.480;19.216;2023-06-01T00:31:55;15.60;99.90
25877;DHT22;13692;47.480;19.216;2023-06-01T00:34:23;15.50;99.90
25877;DHT22;13692;47.480;19.216;2023-06-01T00:36:50;15.40;99.90
25877;DHT22;13692;47.480;19.216;2023-06-01T00:39:17;15.30;99.90
25877;DHT22;13692;47.480;19.216;2023-06-01T00:41:43;15.30;99.90
25877;DHT22;13692;47.480;19.216;2023-06-01T00:44:11;15.40;99.90
25877;DHT22;13692;47.480;19.216;2023-06-01T00:46:38;15.40;99.90
25877;DHT22;13692;47.480;19.216;2023-06-01T00:49:05;15.40;99.90
25877;DHT22;13692;47.480;19.216;2023-06-01T00:51:33;15.40;99.90
25877;DHT22;13692;47.480;19.216;2023-06-01T00:54:02;15.40;99.90
25877;DHT22;13692;47.480;19.216;2023-06-01T00:56:29;15.40;99.90
25877;DHT22;13692;47.480;19.216;2023-06-01T00:58:59;15.40;99.90
25877;DHT22;13692;47.480;19.216;2023-06-01T01:01:26;15.30;99.90
25877;DHT22;13692;47.480;19.216;2023-06-01T01:03:55;15.20;99.90
25877;DHT22;13692;47.480;19.216;2023-06-01T01:09:14;15.20;99.90
25877;DHT22;13692;47.480;19.216;2023-06-01T01:14:34;15.20;99.90
25877;DHT22;13692;47.480;19.216;2023-06-01T01:17:13;15.10;99.90
25877;DHT22;13692;47.480;19.216;2023-06-01T01:25:40;14.90;99.90
25877;DHT22;13692;47.480;19.216;2023-06-01T01:30:54;14.90;99.90
25877;DHT22;13692;47.480;19.216;2023-06-01T01:33:22;14.80;99.90
25877;DHT22;13692;47.480;19.216;2023-06-01T01:35:49;14.70;99.90
25877;DHT22;13692;47.480;19.216;2023-06-01T01:38:17;14.70;99.90
25877;DHT22;13692;47.480;19.216;2023-06-01T01:40:44;14.80;99.90
25877;DHT22;13692;47.480;19.216;2023-06-01T01:43:11;14.80;99.90
25877;DHT22;13692;47.480;19.216;2023-06-01T01:45:39;14.90;99.90
25877;DHT22;13692;47.480;19.216;2023-06-01T01:48:28;14.90;99.90
25877;DHT22;13692;47.480;19.216;2023-06-01T01:51:05;14.80;99.90
25877;DHT22;13692;47.480;19.216;2023-06-01T01:53:33;14.70;99.90
25877;DHT22;13692;47.480;19.216;2023-06-01T01:56:02;14.60;99.90
25877;DHT22;13692;47.480;19.216;2023-06-01T01:58:31;14.50;99.90
25877;DHT22;13692;47.480;19.216;2023-06-01T02:00:58;14.70;99.90
25877;DHT22;13692;47.480;19.216;2023-06-01T02:03:26;14.60;99.90
25877;DHT22;13692;47.480;19.216;2023-06-01T02:05:53;14.50;99.90
25877;DHT22;13692;47.480;19.216;2023-06-01T02:08:20;14.60;99.90
25877;DHT22;13692;47.480;19.216;2023-06-01T02:10:47;14.60;99.90
25877;DHT22;13692;47.480;19.216;2023-06-01T02:13:14;14.50;99.90
25877;DHT22;13692;47.480;19.216;2023-06-01T02:15:41;14.50;99.90
25877;DHT22;13692;47.480;19.216;2023-06-01T02:18:08;14.60;99.90
25877;DHT22;13692;47.480;19.216;2023-06-01T02:20:35;14.60;99.90
25877;DHT22;13692;47.480;19.216;2023-06-01T02:23:02;14.60;99.90
25877;DHT22;13692;47.480;19.216;2023-06-01T02:25:29;14.50;99.90
25877;DHT22;13692;47.480;19.216;2023-06-01T02:27:56;14.50;99.90
25877;DHT22;13692;47.480;19.216;2023-06-01T02:30:23;14.50;99.90
25877;DHT22;13692;47.480;19.216;2023-06-01T02:32:50;14.50;99.90
25877;DHT22;13692;47.480;19.216;2023-06-01T02:35:17;14.50;99.90
25877;DHT22;13692;47.480;19.216;2023-06-01T02:37:44;14.40;99.90
25877;DHT22;13692;47.480;19.216;2023-06-01T02:40:11;14.40;99.90
25877;DHT22;13692;47.480;19.216;2023-06-01T02:42:38;14.40;99.90
25877;DHT22;13692;47.480;19.216;2023-06-01T02:45:07;14.30;99.90
25877;DHT22;13692;47.480;19.216;2023-06-01T02:47:35;14.30;99.90
25877;DHT22;13692;47.480;19.216;2023-06-01T02:50:02;14.30;99.90
25877;DHT22;13692;47.480;19.216;2023-06-01T02:52:31;14.20;99.90
25877;DHT22;13692;47.480;19.216;2023-06-01T02:54:58;14.20;99.90
25877;DHT22;13692;47.480;19.216;2023-06-01T02:57:25;14.20;99.90
25877;DHT22;13692;47.480;19.216;2023-06-01T02:59:52;14.10;99.90
25877;DHT22;13692;47.480;19.216;2023-06-01T03:02:19;14.20;99.90
25877;DHT22;13692;47.480;19.216;2023-06-01T03:04:46;14.30;99.90
25877;DHT22;13692;47.480;19.216;2023-06-01T03:07:15;14.30;99.90
25877;DHT22;13692;47.480;19.216;2023-06-01T03:09:41;14.30;99.90
25877;DHT22;13692;47.480;19.216;2023-06-01T03:12:09;14.30;99.90
25877;DHT22;13692;47.480;19.216;2023-06-01T03:14:36;14.40;99.90
25877;DHT22;13692;47.480;19.216;2023-06-01T03:17:03;14.50;99.90
25877;DHT22;13692;47.480;19.216;2023-06-01T03:19:30;14.40;99.90
25877;DHT22;13692;47.480;19.216;2023-06-01T03:21:57;14.50;99.90
25877;DHT22;13692;47.480;19.216;2023-06-01T03:24:24;14.70;99.90
25877;DHT22;13692;47.480;19.216;2023-06-01T03:26:53;14.90;99.90
25877;DHT22;13692;47.480;19.216;2023-06-01T03:29:20;15.10;99.90
25877;DHT22;13692;47.480;19.216;2023-06-01T03:31:47;15.20;99.90
25877;DHT22;13692;47.480;19.216;2023-06-01T03:34:14;15.40;99.90
25877;DHT22;13692;47.480;19.216;2023-06-01T03:36:41;15.50;99.90
25877;DHT22;13692;47.480;19.216;2023-06-01T03:39:08;15.70;99.90
25877;DHT22;13692;47.480;19.216;2023-06-01T03:41:35;15.90;99.90
25877;DHT22;13692;47.480;19.216;2023-06-01T03:44:02;16.00;99.90
25877;DHT22;13692;47.480;19.216;2023-06-01T03:46:29;16.20;99.90
25877;DHT22;13692;47.480;19.216;2023-06-01T03:48:56;16.30;99.90
25877;DHT22;13692;47.480;19.216;2023-06-01T03:51:23;16.60;99.90
25877;DHT22;13692;47.480;19.216;2023-06-01T03:53:51;16.80;99.90
25877;DHT22;13692;47.480;19.216;2023-06-01T03:56:18;17.10;99.90
25877;DHT22;13692;47.480;19.216;2023-06-01T03:58:46;17.30;99.90
25877;DHT22;13692;47.480;19.216;2023-06-01T04:01:13;17.50;99.90
25877;DHT22;13692;47.480;19.216;2023-06-01T04:03:44;17.70;99.90
25877;DHT22;13692;47.480;19.216;2023-06-01T04:06:11;17.90;99.90
25877;DHT22;13692;47.480;19.216;2023-06-01T04:08:44;18.10;99.90
25877;DHT22;13692;47.480;19.216;2023-06-01T04:11:22;18.50;99.90
25877;DHT22;13692;47.480;19.216;2023-06-01T04:13:49;18.90;99.90
25877;DHT22;13692;47.480;19.216;2023-06-01T04:16:16;19.10;99.90
25877;DHT22;13692;47.480;19.216;2023-06-01T04:18:43;19.40;99.90
25877;DHT22;13692;47.480;19.216;2023-06-01T04:21:10;19.70;99.90
25877;DHT22;13692;47.480;19.216;2023-06-01T04:23:37;19.90;99.90
25877;DHT22;13692;47.480;19.216;2023-06-01T04:26:04;20.10;99.90
25877;DHT22;13692;47.480;19.216;2023-06-01T04:28:32;20.20;99.90
25877;DHT22;13692;47.480;19.216;2023-06-01T04:30:59;20.50;99.90
25877;DHT22;13692;47.480;19.216;2023-06-01T04:33:29;20.70;99.90
25877;DHT22;13692;47.480;19.216;2023-06-01T04:35:56;21.00;99.90
25877;DHT22;13692;47.480;19.216;2023-06-01T04:38:23;21.20;99.90
25877;DHT22;13692;47.480;19.216;2023-06-01T04:40:51;21.30;99.90
25877;DHT22;13692;47.480;19.216;2023-06-01T04:43:20;21.50;99.90
25877;DHT22;13692;47.480;19.216;2023-06-01T04:45:47;21.70;99.90
25877;DHT22;13692;47.480;19.216;2023-06-01T04:48:14;22.00;99.90
25877;DHT22;13692;47.480;19.216;2023-06-01T04:50:43;22.20;99.90
25877;DHT22;13692;47.480;19.216;2023-06-01T04:53:11;22.40;99.90
25877;DHT22;13692;47.480;19.216;2023-06-01T04:55:38;22.70;99.90
25877;DHT22;13692;47.480;19.216;2023-06-01T04:58:05;22.90;99.90
25877;DHT22;13692;47.480;19.216;2023-06-01T05:00:33;23.10;99.90
25877;DHT22;13692;47.480;19.216;2023-06-01T05:03:00;23.40;99.90
25877;DHT22;13692;47.480;19.216;2023-06-01T05:05:29;23.60;99.90
25877;DHT22;13692;47.480;19.216;2023-06-01T05:07:56;23.90;99.90
25877;DHT22;13692;47.480;19.216;2023-06-01T05:10:23;24.20;99.90
25877;DHT22;13692;47.480;19.216;2023-06-01T05:12:50;24.40;99.90
25877;DHT22;13692;47.480;19.216;2023-06-01T05:15:17;24.60;99.90
25877;DHT22;13692;47.480;19.216;2023-06-01T05:17:44;24.90;99.90
25877;DHT22;13692;47.480;19.216;2023-06-01T05:20:14;25.10;99.90
25877;DHT22;13692;47.480;19.216;2023-06-01T05:22:42;25.30;99.90
25877;DHT22;13692;47.480;19.216;2023-06-01T05:25:09;25.50;99.50
25877;DHT22;13692;47.480;19.216;2023-06-01T05:27:36;25.80;99.20
25877;DHT22;13692;47.480;19.216;2023-06-01T05:30:04;26.00;98.40
25877;DHT22;13692;47.480;19.216;2023-06-01T05:32:32;26.20;97.30
25877;DHT22;13692;47.480;19.216;2023-06-01T05:34:59;26.40;96.30
25877;DHT22;13692;47.480;19.216;2023-06-01T05:37:26;26.50;95.80
25877;DHT22;13692;47.480;19.216;2023-06-01T05:39:53;26.70;95.70
25877;DHT22;13692;47.480;19.216;2023-06-01T05:42:20;26.90;95.00
25877;DHT22;13692;47.480;19.216;2023-06-01T05:44:47;27.10;94.20
25877;DHT22;13692;47.480;19.216;2023-06-01T05:47:14;27.40;93.60
25877;DHT22;13692;47.480;19.216;2023-06-01T05:49:41;27.60;90.60
25877;DHT22;13692;47.480;19.216;2023-06-01T05:52:09;27.60;91.30
25877;DHT22;13692;47.480;19.216;2023-06-01T05:54:36;27.70;90.10
25877;DHT22;13692;47.480;19.216;2023-06-01T05:57:03;27.60;86.60
25877;DHT22;13692;47.480;19.216;2023-06-01T05:59:32;27.70;85.30
25877;DHT22;13692;47.480;19.216;2023-06-01T06:01:59;27.70;83.90
25877;DHT22;13692;47.480;19.216;2023-06-01T06:04:26;27.90;85.20
25877;DHT22;13692;47.480;19.216;2023-06-01T06:06:54;28.00;85.30
25877;DHT22;13692;47.480;19.216;2023-06-01T06:09:21;27.90;82.40
25877;DHT22;13692;47.480;19.216;2023-06-01T06:11:48;27.90;78.80
25877;DHT22;13692;47.480;19.216;2023-06-01T06:14:14;28.00;78.80
25877;DHT22;13692;47.480;19.216;2023-06-01T06:16:42;28.20;81.50
25877;DHT22;13692;47.480;19.216;2023-06-01T06:19:09;28.30;78.00
25877;DHT22;13692;47.480;19.216;2023-06-01T06:21:37;28.20;79.90
25877;DHT22;13692;47.480;19.216;2023-06-01T06:24:04;28.40;80.90
25877;DHT22;13692;47.480;19.216;2023-06-01T06:26:31;28.50;76.10
25877;DHT22;13692;47.480;19.216;2023-06-01T06:28:58;28.50;76.70
25877;DHT22;13692;47.480;19.216;2023-06-01T06:31:26;28.60;76.70
25877;DHT22;13692;47.480;19.216;2023-06-01T06:33:53;28.80;75.00
25877;DHT22;13692;47.480;19.216;2023-06-01T06:36:20;28.70;75.40
25877;DHT22;13692;47.480;19.216;2023-06-01T06:38:48;28.80;75.80
25877;DHT22;13692;47.480;19.216;2023-06-01T06:41:15;29.00;74.50
25877;DHT22;13692;47.480;19.216;2023-06-01T06:43:42;29.20;75.40
25877;DHT22;13692;47.480;19.216;2023-06-01T06:46:09;29.30;74.80
25877;DHT22;13692;47.480;19.216;2023-06-01T06:48:36;29.20;72.00
25877;DHT22;13692;47.480;19.216;2023-06-01T06:51:03;29.40;73.50
25877;DHT22;13692;47.480;19.216;2023-06-01T06:53:30;29.20;71.40
25877;DHT22;13692;47.480;19.216;2023-06-01T06:55:57;28.90;71.00
25877;DHT22;13692;47.480;19.216;2023-06-01T06:58:24;29.10;73.10
25877;DHT22;13692;47.480;19.216;2023-06-01T07:00:51;29.30;71.10
25877;DHT22;13692;47.480;19.216;2023-06-01T07:03:18;29.40;69.10
25877;DHT22;13692;47.480;19.216;2023-06-01T07:05:46;29.20;71.10
25877;DHT22;13692;47.480;19.216;2023-06-01T07:08:13;29.30;69.80
25877;DHT22;13692;47.480;19.216;2023-06-01T07:10:40;29.20;69.30
25877;DHT22;13692;47.480;19.216;2023-06-01T07:13:07;29.30;71.30
25877;DHT22;13692;47.480;19.216;2023-06-01T07:15:34;29.50;68.80
25877;DHT22;13692;47.480;19.216;2023-06-01T07:18:01;29.70;67.90
25877;DHT22;13692;47.480;19.216;2023-06-01T07:20:28;29.60;66.80
25877;DHT22;13692;47.480;19.216;2023-06-01T07:22:55;29.60;66.60
25877;DHT22;13692;47.480;19.216;2023-06-01T07:25:22;29.40;67.20
25877;DHT22;13692;47.480;19.216;2023-06-01T07:27:49;29.30;66.80
25877;DHT22;13692;47.480;19.216;2023-06-01T07:30:17;29.40;69.00
25877;DHT22;13692;47.480;19.216;2023-06-01T07:32:44;29.60;67.70
25877;DHT22;13692;47.480;19.216;2023-06-01T07:35:11;29.60;66.20
25877;DHT22;13692;47.480;19.216;2023-06-01T07:37:39;29.50;67.10
25877;DHT22;13692;47.480;19.216;2023-06-01T07:40:07;29.30;67.60
25877;DHT22;13692;47.480;19.216;2023-06-01T07:42:34;29.10;69.10
25877;DHT22;13692;47.480;19.216;2023-06-01T07:45:02;29.00;69.80
25877;DHT22;13692;47.480;19.216;2023-06-01T07:47:29;28.80;69.40
25877;DHT22;13692;47.480;19.216;2023-06-01T07:49:57;29.00;69.30
25877;DHT22;13692;47.480;19.216;2023-06-01T07:52:24;29.60;70.00
25877;DHT22;13692;47.480;19.216;2023-06-01T07:54:51;30.00;69.20
25877;DHT22;13692;47.480;19.216;2023-06-01T07:57:18;30.00;67.20
25877;DHT22;13692;47.480;19.216;2023-06-01T07:59:45;30.10;66.90
25877;DHT22;13692;47.480;19.216;2023-06-01T08:02:12;30.00;66.30
25877;DHT22;13692;47.480;19.216;2023-06-01T08:04:40;29.90;66.70
25877;DHT22;13692;47.480;19.216;2023-06-01T08:07:08;29.50;67.20
25877;DHT22;13692;47.480;19.216;2023-06-01T08:09:35;29.60;68.50
25877;DHT22;13692;47.480;19.216;2023-06-01T08:12:05;29.70;66.20
25877;DHT22;13692;47.480;19.216;2023-06-01T08:14:32;29.60;66.60
25877;DHT22;13692;47.480;19.216;2023-06-01T08:17:01;29.50;68.10
25877;DHT22;13692;47.480;19.216;2023-06-01T08:19:29;29.70;68.40
25877;DHT22;13692;47.480;19.216;2023-06-01T08:21:56;29.60;66.80
25877;DHT22;13692;47.480;19.216;2023-06-01T08:24:24;29.40;67.60
25877;DHT22;13692;47.480;19.216;2023-06-01T08:26:55;29.70;67.20
25877;DHT22;13692;47.480;19.216;2023-06-01T08:29:25;29.90;67.00
25877;DHT22;13692;47.480;19.216;2023-06-01T08:32:09;30.00;66.70
25877;DHT22;13692;47.480;19.216;2023-06-01T08:34:36;30.30;68.00
25877;DHT22;13692;47.480;19.216;2023-06-01T08:37:03;30.50;67.70
25877;DHT22;13692;47.480;19.216;2023-06-01T08:39:30;30.50;64.40
25877;DHT22;13692;47.480;19.216;2023-06-01T08:44:57;30.40;64.40
25877;DHT22;13692;47.480;19.216;2023-06-01T08:47:24;30.50;66.40
25877;DHT22;13692;47.480;19.216;2023-06-01T08:49:58;30.50;63.90
25877;DHT22;13692;47.480;19.216;2023-06-01T08:52:28;30.50;64.40
25877;DHT22;13692;47.480;19.216;2023-06-01T08:54:58;30.50;63.80
25877;DHT22;13692;47.480;19.216;2023-06-01T08:57:25;30.50;65.80
25877;DHT22;13692;47.480;19.216;2023-06-01T08:59:52;30.50;63.80
25877;DHT22;13692;47.480;19.216;2023-06-01T09:02:19;30.60;65.40
25877;DHT22;13692;47.480;19.216;2023-06-01T09:04:46;30.70;65.60
25877;DHT22;13692;47.480;19.216;2023-06-01T09:07:14;30.60;65.60
25877;DHT22;13692;47.480;19.216;2023-06-01T09:09:41;30.60;66.00
25877;DHT22;13692;47.480;19.216;2023-06-01T09:12:28;30.50;62.60
25877;DHT22;13692;47.480;19.216;2023-06-01T09:17:36;30.40;65.60
25877;DHT22;13692;47.480;19.216;2023-06-01T09:20:03;30.30;65.40
25877;DHT22;13692;47.480;19.216;2023-06-01T09:22:44;30.40;63.90
25877;DHT22;13692;47.480;19.216;2023-06-01T09:25:12;30.60;63.60
25877;DHT22;13692;47.480;19.216;2023-06-01T09:27:47;30.50;62.40
25877;DHT22;13692;47.480;19.216;2023-06-01T09:30:17;30.50;63.10
25877;DHT22;13692;47.480;19.216;2023-06-01T09:32:45;30.30;64.50
25877;DHT22;13692;47.480;19.216;2023-06-01T09:35:42;30.30;65.30
25877;DHT22;13692;47.480;19.216;2023-06-01T09:38:10;30.40;64.20
25877;DHT22;13692;47.480;19.216;2023-06-01T09:40:38;30.20;61.10
25877;DHT22;13692;47.480;19.216;2023-06-01T09:43:22;30.10;64.70
25877;DHT22;13692;47.480;19.216;2023-06-01T09:48:32;30.70;64.40
25877;DHT22;13692;47.480;19.216;2023-06-01T09:51:00;31.10;63.80
25877;DHT22;13692;47.480;19.216;2023-06-01T09:53:39;30.80;62.30
25877;DHT22;13692;47.480;19.216;2023-06-01T09:56:06;30.40;62.90
25877;DHT22;13692;47.480;19.216;2023-06-01T09:58:34;30.30;63.40
25877;DHT22;13692;47.480;19.216;2023-06-01T10:01:07;30.40;64.10
25877;DHT22;13692;47.480;19.216;2023-06-01T10:03:41;30.30;64.30
25877;DHT22;13692;47.480;19.216;2023-06-01T10:06:12;30.30;63.60
25877;DHT22;13692;47.480;19.216;2023-06-01T10:08:41;30.60;66.10
25877;DHT22;13692;47.480;19.216;2023-06-01T10:11:09;30.50;63.70
25877;DHT22;13692;47.480;19.216;2023-06-01T10:13:36;30.00;65.80
25877;DHT22;13692;47.480;19.216;2023-06-01T10:16:03;30.00;66.10
25877;DHT22;13692;47.480;19.216;2023-06-01T10:18:32;30.20;63.50
25877;DHT22;13692;47.480;19.216;2023-06-01T10:20:59;30.20;65.30
25877;DHT22;13692;47.480;19.216;2023-06-01T10:23:28;30.40;66.30
25877;DHT22;13692;47.480;19.216;2023-06-01T10:25:59;30.40;64.10
25877;DHT22;13692;47.480;19.216;2023-06-01T10:28:34;30.30;65.90
25877;DHT22;13692;47.480;19.216;2023-06-01T10:31:40;30.40;65.90
25877;DHT22;13692;47.480;19.216;2023-06-01T10:34:12;30.40;64.60
25877;DHT22;13692;47.480;19.216;2023-06-01T10:39:28;30.60;65.70
25877;DHT22;13692;47.480;19.216;2023-06-01T10:41:57;30.60;64.00
25877;DHT22;13692;47.480;19.216;2023-06-01T10:44:53;30.50;64.60
25877;DHT22;13692;47.480;19.216;2023-06-01T10:52:37;30.20;65.20
25877;DHT22;13692;47.480;19.216;2023-06-01T10:57:38;30.20;65.30
25877;DHT22;13692;47.480;19.216;2023-06-01T11:02:59;29.80;62.80
25877;DHT22;13692;47.480;19.216;2023-06-01T11:05:46;29.40;64.50
25877;DHT22;13692;47.480;19.216;2023-06-01T11:13:19;29.20;65.50
25877;DHT22;13692;47.480;19.216;2023-06-01T11:18:52;29.10;66.30
25877;DHT22;13692;47.480;19.216;2023-06-01T11:21:33;29.00;66.70
25877;DHT22;13692;47.480;19.216;2023-06-01T11:26:48;28.30;68.60
25877;DHT22;13692;47.480;19.216;2023-06-01T11:29:21;28.30;67.70
25877;DHT22;13692;47.480;19.216;2023-06-01T11:31:53;28.30;67.30
25877;DHT22;13692;47.480;19.216;2023-06-01T11:34:37;28.30;68.00
25877;DHT22;13692;47.480;19.216;2023-06-01T11:37:11;28.50;68.40
25877;DHT22;13692;47.480;19.216;2023-06-01T11:39:40;28.80;68.70
25877;DHT22;13692;47.480;19.216;2023-06-01T11:42:09;28.80;67.70
25877;DHT22;13692;47.480;19.216;2023-06-01T11:44:39;28.90;67.00
25877;DHT22;13692;47.480;19.216;2023-06-01T11:47:08;29.00;66.10
25877;DHT22;13692;47.480;19.216;2023-06-01T11:49:50;29.00;66.50
25877;DHT22;13692;47.480;19.216;2023-06-01T11:52:19;28.90;65.90
25877;DHT22;13692;47.480;19.216;2023-06-01T11:54:47;28.90;67.70
25877;DHT22;13692;47.480;19.216;2023-06-01T11:57:15;29.10;68.80
25877;DHT22;13692;47.480;19.216;2023-06-01T11:59:49;29.20;66.30
25877;DHT22;13692;47.480;19.216;2023-06-01T12:02:27;29.00;68.10
25877;DHT22;13692;47.480;19.216;2023-06-01T12:05:01;29.10;67.40
25877;DHT22;13692;47.480;19.216;2023-06-01T12:07:50;29.10;68.40
25877;DHT22;13692;47.480;19.216;2023-06-01T12:10:21;28.80;67.50
25877;DHT22;13692;47.480;19.216;2023-06-01T12:12:49;28.60;65.30
25877;DHT22;13692;47.480;19.216;2023-06-01T12:15:17;28.40;66.90
25877;DHT22;13692;47.480;19.216;2023-06-01T12:17:47;28.50;66.60
25877;DHT22;13692;47.480;19.216;2023-06-01T12:20:32;28.80;66.40
25877;DHT22;13692;47.480;19.216;2023-06-01T12:23:13;29.00;65.90
25877;DHT22;13692;47.480;19.216;2023-06-01T12:25:56;29.00;63.30
25877;DHT22;13692;47.480;19.216;2023-06-01T12:28:26;29.00;64.50
25877;DHT22;13692;47.480;19.216;2023-06-01T12:31:12;29.10;65.50
25877;DHT22;13692;47.480;19.216;2023-06-01T12:33:41;29.30;65.40
25877;DHT22;13692;47.480;19.216;2023-06-01T12:36:08;29.50;65.40
25877;DHT22;13692;47.480;19.216;2023-06-01T12:38:36;29.30;65.70
25877;DHT22;13692;47.480;19.216;2023-06-01T12:41:08;29.10;66.60
25877;DHT22;13692;47.480;19.216;2023-06-01T12:43:35;28.80;66.40
25877;DHT22;13692;47.480;19.216;2023-06-01T12:46:03;28.60;66.10
25877;DHT22;13692;47.480;19.216;2023-06-01T12:48:35;28.40;68.40
25877;DHT22;13692;47.480;19.216;2023-06-01T12:51:04;28.30;70.10
25877;DHT22;13692;47.480;19.216;2023-06-01T12:53:31;28.30;69.90
25877;DHT22;13692;47.480;19.216;2023-06-01T12:55:58;28.20;69.70
25877;DHT22;13692;47.480;19.216;2023-06-01T12:58:27;28.20;69.40
25877;DHT22;13692;47.480;19.216;2023-06-01T13:00:55;28.30;70.70
25877;DHT22;13692;47.480;19.216;2023-06-01T13:03:23;28.40;72.70
25877;DHT22;13692;47.480;19.216;2023-06-01T13:05:52;28.60;70.60
25877;DHT22;13692;47.480;19.216;2023-06-01T13:08:19;28.80;70.20
25877;DHT22;13692;47.480;19.216;2023-06-01T13:10:46;28.90;66.30
25877;DHT22;13692;47.480;19.216;2023-06-01T13:13:13;28.70;68.90
25877;DHT22;13692;47.480;19.216;2023-06-01T13:15:41;28.90;69.80
25877;DHT22;13692;47.480;19.216;2023-06-01T13:18:08;29.10;68.40
25877;DHT22;13692;47.480;19.216;2023-06-01T13:20:36;29.10;66.90
25877;DHT22;13692;47.480;19.216;2023-06-01T13:23:03;29.10;67.40
25877;DHT22;13692;47.480;19.216;2023-06-01T13:25:33;29.20;66.30
25877;DHT22;13692;47.480;19.216;2023-06-01T13:28:00;29.10;64.30
25877;DHT22;13692;47.480;19.216;2023-06-01T13:30:28;29.00;65.40
25877;DHT22;13692;47.480;19.216;2023-06-01T13:32:56;28.90;66.90
25877;DHT22;13692;47.480;19.216;2023-06-01T13:35:24;28.70;64.40
25877;DHT22;13692;47.480;19.216;2023-06-01T13:37:52;28.70;66.70
25877;DHT22;13692;47.480;19.216;2023-06-01T13:40:19;28.90;67.60
25877;DHT22;13692;47.480;19.216;2023-06-01T13:42:50;29.00;65.50
25877;DHT22;13692;47.480;19.216;2023-06-01T13:45:18;29.00;65.30
25877;DHT22;13692;47.480;19.216;2023-06-01T13:47:45;28.90;63.90
25877;DHT22;13692;47.480;19.216;2023-06-01T13:50:13;28.80;64.90
25877;DHT22;13692;47.480;19.216;2023-06-01T13:52:41;28.80;65.90
25877;DHT22;13692;47.480;19.216;2023-06-01T13:55:09;28.90;65.60
25877;DHT22;13692;47.480;19.216;2023-06-01T13:57:36;29.00;64.60
25877;DHT22;13692;47.480;19.216;2023-06-01T14:00:07;29.00;64.10
25877;DHT22;13692;47.480;19.216;2023-06-01T14:02:37;29.00;63.90
25877;DHT22;13692;47.480;19.216;2023-06-01T14:05:05;28.90;64.30
25877;DHT22;13692;47.480;19.216;2023-06-01T14:07:36;28.80;64.60
25877;DHT22;13692;47.480;19.216;2023-06-01T14:10:03;28.60;64.30
25877;DHT22;13692;47.480;19.216;2023-06-01T14:12:30;28.50;65.10
25877;DHT22;13692;47.480;19.216;2023-06-01T14:14:57;28.50;64.70
25877;DHT22;13692;47.480;19.216;2023-06-01T14:17:24;28.60;65.10
25877;DHT22;13692;47.480;19.216;2023-06-01T14:19:51;28.70;65.30
25877;DHT22;13692;47.480;19.216;2023-06-01T14:22:19;28.80;65.50
25877;DHT22;13692;47.480;19.216;2023-06-01T14:24:47;28.90;65.70
25877;DHT22;13692;47.480;19.216;2023-06-01T14:27:14;28.90;65.20
25877;DHT22;13692;47.480;19.216;2023-06-01T14:29:41;29.00;63.70
25877;DHT22;13692;47.480;19.216;2023-06-01T14:32:10;29.00;62.90
25877;DHT22;13692;47.480;19.216;2023-06-01T14:34:37;28.90;63.60
25877;DHT22;13692;47.480;19.216;2023-06-01T14:37:04;28.80;64.00
25877;DHT22;13692;47.480;19.216;2023-06-01T14:39:33;28.50;63.30
25877;DHT22;13692;47.480;19.216;2023-06-01T14:42:00;28.40;64.70
25877;DHT22;13692;47.480;19.216;2023-06-01T14:44:27;28.30;64.50
25877;DHT22;13692;47.480;19.216;2023-06-01T14:46:54;28.20;64.70
25877;DHT22;13692;47.480;19.216;2023-06-01T14:49:24;28.10;65.00
25877;DHT22;13692;47.480;19.216;2023-06-01T14:52:08;28.00;63.50
25877;DHT22;13692;47.480;19.216;2023-06-01T14:54:36;28.00;63.20
25877;DHT22;13692;47.480;19.216;2023-06-01T14:57:04;28.20;64.60
25877;DHT22;13692;47.480;19.216;2023-06-01T14:59:32;28.20;65.90
25877;DHT22;13692;47.480;19.216;2023-06-01T15:02:00;28.10;67.80
25877;DHT22;13692;47.480;19.216;2023-06-01T15:04:29;28.10;67.70
25877;DHT22;13692;47.480;19.216;2023-06-01T15:06:56;27.90;66.80
25877;DHT22;13692;47.480;19.216;2023-06-01T15:09:23;27.80;66.50
25877;DHT22;13692;47.480;19.216;2023-06-01T15:11:50;27.80;67.00
25877;DHT22;13692;47.480;19.216;2023-06-01T15:14:17;27.80;67.50
25877;DHT22;13692;47.480;19.216;2023-06-01T15:16:44;27.80;67.30
25877;DHT22;13692;47.480;19.216;2023-06-01T15:19:11;27.90;66.60
25877;DHT22;13692;47.480;19.216;2023-06-01T15:21:39;27.90;67.60
25877;DHT22;13692;47.480;19.216;2023-06-01T15:24:06;27.90;68.70
25877;DHT22;13692;47.480;19.216;2023-06-01T15:26:33;27.90;68.70
25877;DHT22;13692;47.480;19.216;2023-06-01T15:29:00;27.80;68.30
25877;DHT22;13692;47.480;19.216;2023-06-01T15:31:27;27.70;69.10
25877;DHT22;13692;47.480;19.216;2023-06-01T15:33:54;27.70;69.20
25877;DHT22;13692;47.480;19.216;2023-06-01T15:36:21;27.70;69.50
25877;DHT22;13692;47.480;19.216;2023-06-01T15:38:48;27.70;70.70
25877;DHT22;13692;47.480;19.216;2023-06-01T15:41:15;27.70;71.10
25877;DHT22;13692;47.480;19.216;2023-06-01T15:43:42;27.80;71.30
25877;DHT22;13692;47.480;19.216;2023-06-01T15:46:09;27.70;71.30
25877;DHT22;13692;47.480;19.216;2023-06-01T15:48:36;27.60;71.70
25877;DHT22;13692;47.480;19.216;2023-06-01T15:51:06;27.60;71.90
25877;DHT22;13692;47.480;19.216;2023-06-01T15:53:34;27.50;72.60
25877;DHT22;13692;47.480;19.216;2023-06-01T15:56:01;27.40;71.60
25877;DHT22;13692;47.480;19.216;2023-06-01T15:58:28;27.30;71.90
25877;DHT22;13692;47.480;19.216;2023-06-01T16:00:55;27.30;72.60
25877;DHT22;13692;47.480;19.216;2023-06-01T16:03:37;27.30;72.50
25877;DHT22;13692;47.480;19.216;2023-06-01T16:06:04;27.30;73.40
25877;DHT22;13692;47.480;19.216;2023-06-01T16:08:31;27.40;73.60
25877;DHT22;13692;47.480;19.216;2023-06-01T16:10:58;27.30;73.30
25877;DHT22;13692;47.480;19.216;2023-06-01T16:13:25;27.10;73.10